Hlavní strana
METAR-TAF:

METAR-TAF

Letiště :

Accra, Ghana

zeměpisná šířka: 05-36N, zeměpisná délka: 000-10W, výška: 68 m

Aktuální stav počasí

Zpráva byla vytvořena před 43 minutami, v 06:00 UTC
Západní vítr 6 kt
Teplota 25°C
Vlhkost vzduchu 89%
Tlak 1009 hPa
Viditelnost 10 km a více
Žádná oblačnost pod 1500 m, nevyskytují se cumulonimby.

METAR: DGAA 020600Z 26006KT CAVOK 25/23 Q1009 NOSIG

Čas: 06:43 (06:43 UTC)

Předpověď počasí

Zpráva byla vytvořena před 1 hodinou a 43 minutami, v 05:00 UTC
Předpověď platná od 02 v 06 UTC do 03 v 12 UTC
Západní vítr 8 kt
Viditelnost 10 km a více
Polojasno ve výšce 1500 ft
Změna
od 02 v 11 UTC do 02 v 13 UTC
Jihojihozápadní vítr 12 kt
Dočasný
od 02 v 14 UTC do 02 v 18 UTC
Skoro jasno ve výšce 3000 ft, Cumulonimbus.
Změna
od 03 v 00 UTC do 03 v 02 UTC
Západní vítr 8 kt
Viditelnost 10 km a více
Žádná oblačnost pod 1500 m, nevyskytují se cumulonimby.

TAF: DGAA 020500Z 0206/0312 26008KT 9999 SCT015 BECMG 0211/0213 20012KT TEMPO 0214/0218 FEW030CB BECMG 0300/0302 28008KT CAVOK

Stav a předpovědi počasí z více než 4 000 letišť (zprávy METAR a TAF).

Červené a žluté tečky na mapě představují dostupné meteorologické stanice.

Když kurzor umístíte na tečku, zobrazí se název stanice.

Pak kliknutím zobrazíte stav a předpověď počasí.

Chcete-li změnit mapu, kliknutím na zelené tlačítko se znaménkem +mapu přiblížíte, kliknutím na zelené tlačítko se znaménkem – mapu oddálíte a kliknutím na zelené šipky přejdete na sousední mapy.


METAR-TAF: